sensor_id;sensor_type;location;lat;lon;timestamp;temperature;humidity
15455;DHT22;21057;51.024;7.540;2022-08-01T00:01:26;21.00;99.90
15455;DHT22;21057;51.024;7.540;2022-08-01T00:03:52;21.00;99.90
15455;DHT22;21057;51.024;7.540;2022-08-01T00:06:19;21.00;99.90
15455;DHT22;21057;51.024;7.540;2022-08-01T00:08:46;20.90;99.90
15455;DHT22;21057;51.024;7.540;2022-08-01T00:11:15;20.90;99.90
15455;DHT22;21057;51.024;7.540;2022-08-01T00:13:42;20.90;99.90
15455;DHT22;21057;51.024;7.540;2022-08-01T00:16:08;20.90;99.90
15455;DHT22;21057;51.024;7.540;2022-08-01T00:18:35;20.90;99.90
15455;DHT22;21057;51.024;7.540;2022-08-01T00:21:03;21.00;99.90
15455;DHT22;21057;51.024;7.540;2022-08-01T00:23:30;21.00;99.90
15455;DHT22;21057;51.024;7.540;2022-08-01T00:25:57;21.10;99.90
15455;DHT22;21057;51.024;7.540;2022-08-01T00:28:26;21.00;99.90
15455;DHT22;21057;51.024;7.540;2022-08-01T00:30:53;20.70;99.90
15455;DHT22;21057;51.024;7.540;2022-08-01T00:33:20;20.70;99.90
15455;DHT22;21057;51.024;7.540;2022-08-01T00:35:46;20.70;99.90
15455;DHT22;21057;51.024;7.540;2022-08-01T00:38:13;20.60;99.90
15455;DHT22;21057;51.024;7.540;2022-08-01T00:40:42;20.50;99.90
15455;DHT22;21057;51.024;7.540;2022-08-01T00:43:12;20.50;99.90
15455;DHT22;21057;51.024;7.540;2022-08-01T00:45:41;20.70;99.90
15455;DHT22;21057;51.024;7.540;2022-08-01T00:48:08;20.60;99.90
15455;DHT22;21057;51.024;7.540;2022-08-01T00:50:36;20.40;99.90
15455;DHT22;21057;51.024;7.540;2022-08-01T00:53:03;20.40;99.90
15455;DHT22;21057;51.024;7.540;2022-08-01T00:55:31;20.30;99.90
15455;DHT22;21057;51.024;7.540;2022-08-01T00:57:58;20.30;99.90
15455;DHT22;21057;51.024;7.540;2022-08-01T01:00:26;20.20;99.90
15455;DHT22;21057;51.024;7.540;2022-08-01T01:02:54;20.10;99.90
15455;DHT22;21057;51.024;7.540;2022-08-01T01:05:21;20.10;99.90
15455;DHT22;21057;51.024;7.540;2022-08-01T01:07:53;20.00;99.90
15455;DHT22;21057;51.024;7.540;2022-08-01T01:10:24;20.00;99.90
15455;DHT22;21057;51.024;7.540;2022-08-01T01:12:59;20.00;99.90
15455;DHT22;21057;51.024;7.540;2022-08-01T01:15:30;19.90;99.90
15455;DHT22;21057;51.024;7.540;2022-08-01T01:18:03;20.00;99.90
15455;DHT22;21057;51.024;7.540;2022-08-01T01:20:34;19.90;99.90
15455;DHT22;21057;51.024;7.540;2022-08-01T01:23:23;19.90;99.90
15455;DHT22;21057;51.024;7.540;2022-08-01T01:26:14;19.90;99.90
15455;DHT22;21057;51.024;7.540;2022-08-01T01:29:00;20.00;99.90
15455;DHT22;21057;51.024;7.540;2022-08-01T01:31:31;19.80;99.90
15455;DHT22;21057;51.024;7.540;2022-08-01T01:33:59;19.90;99.90
15455;DHT22;21057;51.024;7.540;2022-08-01T01:36:30;20.00;99.90
15455;DHT22;21057;51.024;7.540;2022-08-01T01:39:00;20.00;99.90
15455;DHT22;21057;51.024;7.540;2022-08-01T01:41:28;20.00;99.90
15455;DHT22;21057;51.024;7.540;2022-08-01T01:43:57;20.10;99.90
15455;DHT22;21057;51.024;7.540;2022-08-01T01:46:26;19.90;99.90
15455;DHT22;21057;51.024;7.540;2022-08-01T01:48:55;20.00;99.90
15455;DHT22;21057;51.024;7.540;2022-08-01T01:51:25;20.00;99.90
15455;DHT22;21057;51.024;7.540;2022-08-01T01:53:53;19.90;99.90
15455;DHT22;21057;51.024;7.540;2022-08-01T01:56:22;19.90;99.90
15455;DHT22;21057;51.024;7.540;2022-08-01T01:58:51;19.90;99.90
15455;DHT22;21057;51.024;7.540;2022-08-01T02:01:21;20.00;99.90
15455;DHT22;21057;51.024;7.540;2022-08-01T02:03:49;20.10;99.90
15455;DHT22;21057;51.024;7.540;2022-08-01T02:06:17;20.10;99.90
15455;DHT22;21057;51.024;7.540;2022-08-01T02:08:45;20.10;99.90
15455;DHT22;21057;51.024;7.540;2022-08-01T02:11:12;20.10;99.90
15455;DHT22;21057;51.024;7.540;2022-08-01T02:13:48;20.10;99.90
15455;DHT22;21057;51.024;7.540;2022-08-01T02:16:16;19.90;99.90
15455;DHT22;21057;51.024;7.540;2022-08-01T02:18:45;20.00;99.90
15455;DHT22;21057;51.024;7.540;2022-08-01T02:21:18;19.90;99.90
15455;DHT22;21057;51.024;7.540;2022-08-01T02:23:48;19.70;99.90
15455;DHT22;21057;51.024;7.540;2022-08-01T02:26:17;19.80;99.90
15455;DHT22;21057;51.024;7.540;2022-08-01T02:28:49;19.80;99.90
15455;DHT22;21057;51.024;7.540;2022-08-01T02:31:18;19.80;99.90
15455;DHT22;21057;51.024;7.540;2022-08-01T02:33:52;20.00;99.90
15455;DHT22;21057;51.024;7.540;2022-08-01T02:36:20;19.80;99.90
15455;DHT22;21057;51.024;7.540;2022-08-01T02:38:48;20.00;99.90
15455;DHT22;21057;51.024;7.540;2022-08-01T02:41:19;20.00;99.90
15455;DHT22;21057;51.024;7.540;2022-08-01T02:43:49;20.10;99.90
15455;DHT22;21057;51.024;7.540;2022-08-01T02:46:22;19.80;99.90
15455;DHT22;21057;51.024;7.540;2022-08-01T02:48:53;19.80;99.90
15455;DHT22;21057;51.024;7.540;2022-08-01T02:51:23;19.80;99.90
15455;DHT22;21057;51.024;7.540;2022-08-01T02:53:52;19.80;99.90
15455;DHT22;21057;51.024;7.540;2022-08-01T02:56:21;19.80;99.90
15455;DHT22;21057;51.024;7.540;2022-08-01T02:58:49;19.70;99.90
15455;DHT22;21057;51.024;7.540;2022-08-01T03:01:17;19.80;99.90
15455;DHT22;21057;51.024;7.540;2022-08-01T03:03:45;19.90;99.90
15455;DHT22;21057;51.024;7.540;2022-08-01T03:06:14;20.00;99.90
15455;DHT22;21057;51.024;7.540;2022-08-01T03:08:43;20.00;99.90
15455;DHT22;21057;51.024;7.540;2022-08-01T03:11:12;20.00;99.90
15455;DHT22;21057;51.024;7.540;2022-08-01T03:13:40;20.00;99.90
15455;DHT22;21057;51.024;7.540;2022-08-01T03:16:11;20.00;99.90
15455;DHT22;21057;51.024;7.540;2022-08-01T03:18:40;19.90;99.90
15455;DHT22;21057;51.024;7.540;2022-08-01T03:21:08;19.90;99.90
15455;DHT22;21057;51.024;7.540;2022-08-01T03:23:38;19.80;99.90
15455;DHT22;21057;51.024;7.540;2022-08-01T03:26:06;19.90;99.90
15455;DHT22;21057;51.024;7.540;2022-08-01T03:28:33;20.00;99.90
15455;DHT22;21057;51.024;7.540;2022-08-01T03:31:02;20.10;99.90
15455;DHT22;21057;51.024;7.540;2022-08-01T03:33:29;20.10;99.90
15455;DHT22;21057;51.024;7.540;2022-08-01T03:35:59;20.10;99.90
15455;DHT22;21057;51.024;7.540;2022-08-01T03:38:27;20.10;99.90
15455;DHT22;21057;51.024;7.540;2022-08-01T03:41:02;20.20;99.90
15455;DHT22;21057;51.024;7.540;2022-08-01T03:43:38;20.20;99.90
15455;DHT22;21057;51.024;7.540;2022-08-01T03:46:10;20.20;99.90
15455;DHT22;21057;51.024;7.540;2022-08-01T03:48:42;20.30;99.90
15455;DHT22;21057;51.024;7.540;2022-08-01T03:51:10;20.30;99.90
15455;DHT22;21057;51.024;7.540;2022-08-01T03:53:38;20.40;99.90
15455;DHT22;21057;51.024;7.540;2022-08-01T03:56:09;20.30;99.90
15455;DHT22;21057;51.024;7.540;2022-08-01T03:58:38;20.30;99.90
15455;DHT22;21057;51.024;7.540;2022-08-01T04:01:06;20.20;99.90
15455;DHT22;21057;51.024;7.540;2022-08-01T04:03:35;20.20;99.90
15455;DHT22;21057;51.024;7.540;2022-08-01T04:06:04;20.00;99.90
15455;DHT22;21057;51.024;7.540;2022-08-01T04:08:34;19.90;99.90
15455;DHT22;21057;51.024;7.540;2022-08-01T04:11:02;19.90;99.90
15455;DHT22;21057;51.024;7.540;2022-08-01T04:13:30;19.80;99.90
15455;DHT22;21057;51.024;7.540;2022-08-01T04:15:58;19.90;99.90
15455;DHT22;21057;51.024;7.540;2022-08-01T04:18:25;20.10;99.90
15455;DHT22;21057;51.024;7.540;2022-08-01T04:20:52;20.20;99.90
15455;DHT22;21057;51.024;7.540;2022-08-01T04:23:23;20.10;99.90
15455;DHT22;21057;51.024;7.540;2022-08-01T04:25:52;20.10;99.90
15455;DHT22;21057;51.024;7.540;2022-08-01T04:28:22;20.10;99.90
15455;DHT22;21057;51.024;7.540;2022-08-01T04:30:54;20.20;99.90
15455;DHT22;21057;51.024;7.540;2022-08-01T04:33:23;20.00;99.90
15455;DHT22;21057;51.024;7.540;2022-08-01T04:35:52;20.10;99.90
15455;DHT22;21057;51.024;7.540;2022-08-01T04:38:23;20.10;99.90
15455;DHT22;21057;51.024;7.540;2022-08-01T04:40:55;20.10;99.90
15455;DHT22;21057;51.024;7.540;2022-08-01T04:43:23;20.00;99.90
15455;DHT22;21057;51.024;7.540;2022-08-01T04:45:52;20.00;99.90
15455;DHT22;21057;51.024;7.540;2022-08-01T04:48:19;20.10;99.90
15455;DHT22;21057;51.024;7.540;2022-08-01T04:50:47;20.20;99.90
15455;DHT22;21057;51.024;7.540;2022-08-01T04:53:16;20.30;99.90
15455;DHT22;21057;51.024;7.540;2022-08-01T04:55:44;20.20;99.90
15455;DHT22;21057;51.024;7.540;2022-08-01T04:58:12;20.00;99.90
15455;DHT22;21057;51.024;7.540;2022-08-01T05:00:39;20.10;99.90
15455;DHT22;21057;51.024;7.540;2022-08-01T05:03:08;20.30;99.90
15455;DHT22;21057;51.024;7.540;2022-08-01T05:05:35;20.40;99.90
15455;DHT22;21057;51.024;7.540;2022-08-01T05:08:02;20.30;99.90
15455;DHT22;21057;51.024;7.540;2022-08-01T05:10:29;20.20;99.90
15455;DHT22;21057;51.024;7.540;2022-08-01T05:12:56;20.20;99.90
15455;DHT22;21057;51.024;7.540;2022-08-01T05:15:23;20.20;99.90
15455;DHT22;21057;51.024;7.540;2022-08-01T05:17:50;20.40;99.90
15455;DHT22;21057;51.024;7.540;2022-08-01T05:20:19;20.30;99.90
15455;DHT22;21057;51.024;7.540;2022-08-01T05:22:46;20.30;99.90
15455;DHT22;21057;51.024;7.540;2022-08-01T05:25:13;20.30;99.90
15455;DHT22;21057;51.024;7.540;2022-08-01T05:27:40;20.40;99.90
15455;DHT22;21057;51.024;7.540;2022-08-01T05:30:08;20.30;99.90
15455;DHT22;21057;51.024;7.540;2022-08-01T05:32:35;20.40;99.90
15455;DHT22;21057;51.024;7.540;2022-08-01T05:35:04;20.30;99.90
15455;DHT22;21057;51.024;7.540;2022-08-01T05:37:32;20.00;99.90
15455;DHT22;21057;51.024;7.540;2022-08-01T05:39:59;20.10;99.90
15455;DHT22;21057;51.024;7.540;2022-08-01T05:42:26;20.00;99.90
15455;DHT22;21057;51.024;7.540;2022-08-01T05:44:53;20.20;99.90
15455;DHT22;21057;51.024;7.540;2022-08-01T05:47:20;20.10;99.90
15455;DHT22;21057;51.024;7.540;2022-08-01T05:49:47;20.20;99.90
15455;DHT22;21057;51.024;7.540;2022-08-01T05:52:14;20.30;99.90
15455;DHT22;21057;51.024;7.540;2022-08-01T05:54:43;20.30;99.90
15455;DHT22;21057;51.024;7.540;2022-08-01T05:57:10;20.50;99.90
15455;DHT22;21057;51.024;7.540;2022-08-01T05:59:36;20.60;99.90
15455;DHT22;21057;51.024;7.540;2022-08-01T06:02:03;20.60;99.90
15455;DHT22;21057;51.024;7.540;2022-08-01T06:04:30;20.50;99.90
15455;DHT22;21057;51.024;7.540;2022-08-01T06:06:57;20.30;99.90
15455;DHT22;21057;51.024;7.540;2022-08-01T06:09:24;20.30;99.90
15455;DHT22;21057;51.024;7.540;2022-08-01T06:11:52;20.20;99.90
15455;DHT22;21057;51.024;7.540;2022-08-01T06:14:19;20.10;99.90
15455;DHT22;21057;51.024;7.540;2022-08-01T06:16:46;20.20;99.90
15455;DHT22;21057;51.024;7.540;2022-08-01T06:19:13;20.00;99.90
15455;DHT22;21057;51.024;7.540;2022-08-01T06:21:40;19.90;99.90
15455;DHT22;21057;51.024;7.540;2022-08-01T06:24:07;20.20;99.90
15455;DHT22;21057;51.024;7.540;2022-08-01T06:26:34;20.10;99.90
15455;DHT22;21057;51.024;7.540;2022-08-01T06:29:03;20.40;99.90
15455;DHT22;21057;51.024;7.540;2022-08-01T06:31:30;20.50;99.90
15455;DHT22;21057;51.024;7.540;2022-08-01T06:33:57;20.50;99.90
15455;DHT22;21057;51.024;7.540;2022-08-01T06:36:24;20.60;99.90
15455;DHT22;21057;51.024;7.540;2022-08-01T06:38:52;20.60;99.90
15455;DHT22;21057;51.024;7.540;2022-08-01T06:41:19;20.60;99.90
15455;DHT22;21057;51.024;7.540;2022-08-01T06:43:46;20.70;99.90
15455;DHT22;21057;51.024;7.540;2022-08-01T06:46:14;20.80;99.90
15455;DHT22;21057;51.024;7.540;2022-08-01T06:48:41;20.90;99.90
15455;DHT22;21057;51.024;7.540;2022-08-01T06:51:08;21.10;99.90
15455;DHT22;21057;51.024;7.540;2022-08-01T06:53:36;21.00;99.90
15455;DHT22;21057;51.024;7.540;2022-08-01T06:56:04;20.90;99.90
15455;DHT22;21057;51.024;7.540;2022-08-01T06:58:32;20.90;99.90
15455;DHT22;21057;51.024;7.540;2022-08-01T07:01:00;20.90;99.90
15455;DHT22;21057;51.024;7.540;2022-08-01T07:03:28;21.00;99.90
15455;DHT22;21057;51.024;7.540;2022-08-01T07:05:55;21.00;99.90
15455;DHT22;21057;51.024;7.540;2022-08-01T07:08:22;21.30;99.90
15455;DHT22;21057;51.024;7.540;2022-08-01T07:10:49;21.30;99.90
15455;DHT22;21057;51.024;7.540;2022-08-01T07:13:16;21.20;99.90
15455;DHT22;21057;51.024;7.540;2022-08-01T07:15:46;21.20;99.90
15455;DHT22;21057;51.024;7.540;2022-08-01T07:18:13;21.20;99.90
15455;DHT22;21057;51.024;7.540;2022-08-01T07:20:42;21.10;99.90
15455;DHT22;21057;51.024;7.540;2022-08-01T07:23:11;21.10;99.90
15455;DHT22;21057;51.024;7.540;2022-08-01T07:25:38;21.40;99.90
15455;DHT22;21057;51.024;7.540;2022-08-01T07:28:05;21.30;99.90
15455;DHT22;21057;51.024;7.540;2022-08-01T07:30:32;21.40;99.90
15455;DHT22;21057;51.024;7.540;2022-08-01T07:32:59;21.50;99.90
15455;DHT22;21057;51.024;7.540;2022-08-01T07:35:26;21.50;99.90
15455;DHT22;21057;51.024;7.540;2022-08-01T07:37:55;21.20;99.90
15455;DHT22;21057;51.024;7.540;2022-08-01T07:40:22;21.20;99.90
15455;DHT22;21057;51.024;7.540;2022-08-01T07:42:49;21.80;99.90
15455;DHT22;21057;51.024;7.540;2022-08-01T07:45:16;22.20;99.90
15455;DHT22;21057;51.024;7.540;2022-08-01T07:47:43;22.20;99.90
15455;DHT22;21057;51.024;7.540;2022-08-01T07:50:11;22.10;99.90
15455;DHT22;21057;51.024;7.540;2022-08-01T07:52:39;22.10;99.90
15455;DHT22;21057;51.024;7.540;2022-08-01T07:55:08;22.00;99.90
15455;DHT22;21057;51.024;7.540;2022-08-01T07:57:35;21.90;99.90
15455;DHT22;21057;51.024;7.540;2022-08-01T08:00:04;21.90;99.90
15455;DHT22;21057;51.024;7.540;2022-08-01T08:02:32;21.70;99.90
15455;DHT22;21057;51.024;7.540;2022-08-01T08:04:59;21.70;99.90
15455;DHT22;21057;51.024;7.540;2022-08-01T08:07:26;21.90;99.90
15455;DHT22;21057;51.024;7.540;2022-08-01T08:09:53;22.00;99.90
15455;DHT22;21057;51.024;7.540;2022-08-01T08:12:22;22.10;99.90
15455;DHT22;21057;51.024;7.540;2022-08-01T08:14:49;22.10;99.90
15455;DHT22;21057;51.024;7.540;2022-08-01T08:17:15;22.30;99.90
15455;DHT22;21057;51.024;7.540;2022-08-01T08:19:42;22.20;99.90
15455;DHT22;21057;51.024;7.540;2022-08-01T08:22:09;22.20;99.90
15455;DHT22;21057;51.024;7.540;2022-08-01T08:24:37;22.40;99.90
15455;DHT22;21057;51.024;7.540;2022-08-01T08:27:04;22.70;99.90
15455;DHT22;21057;51.024;7.540;2022-08-01T08:29:34;22.60;99.90
15455;DHT22;21057;51.024;7.540;2022-08-01T08:32:02;22.50;99.90
15455;DHT22;21057;51.024;7.540;2022-08-01T08:34:29;22.20;99.90
15455;DHT22;21057;51.024;7.540;2022-08-01T08:36:56;22.40;99.90
15455;DHT22;21057;51.024;7.540;2022-08-01T08:39:24;22.50;99.90
15455;DHT22;21057;51.024;7.540;2022-08-01T08:41:53;22.70;99.90
15455;DHT22;21057;51.024;7.540;2022-08-01T08:44:20;22.90;99.90
15455;DHT22;21057;51.024;7.540;2022-08-01T08:46:50;22.80;99.90
15455;DHT22;21057;51.024;7.540;2022-08-01T08:49:19;22.90;99.90
15455;DHT22;21057;51.024;7.540;2022-08-01T08:51:48;22.90;99.90
15455;DHT22;21057;51.024;7.540;2022-08-01T08:54:17;22.80;99.90
15455;DHT22;21057;51.024;7.540;2022-08-01T08:56:46;22.60;99.90
15455;DHT22;21057;51.024;7.540;2022-08-01T08:59:13;22.60;99.90
15455;DHT22;21057;51.024;7.540;2022-08-01T09:01:40;22.60;99.90
15455;DHT22;21057;51.024;7.540;2022-08-01T09:04:10;22.70;99.90
15455;DHT22;21057;51.024;7.540;2022-08-01T09:06:37;23.10;99.90
15455;DHT22;21057;51.024;7.540;2022-08-01T09:09:06;22.90;99.90
15455;DHT22;21057;51.024;7.540;2022-08-01T09:11:33;22.70;99.90
15455;DHT22;21057;51.024;7.540;2022-08-01T09:14:06;22.80;99.90
15455;DHT22;21057;51.024;7.540;2022-08-01T09:16:34;22.80;99.90
15455;DHT22;21057;51.024;7.540;2022-08-01T09:19:11;23.00;99.90
15455;DHT22;21057;51.024;7.540;2022-08-01T09:21:39;22.80;99.90
15455;DHT22;21057;51.024;7.540;2022-08-01T09:24:14;23.00;99.90
15455;DHT22;21057;51.024;7.540;2022-08-01T09:26:42;23.20;99.90
15455;DHT22;21057;51.024;7.540;2022-08-01T09:29:21;23.20;99.90
15455;DHT22;21057;51.024;7.540;2022-08-01T09:31:48;23.40;99.90
15455;DHT22;21057;51.024;7.540;2022-08-01T09:34:24;23.20;99.90
15455;DHT22;21057;51.024;7.540;2022-08-01T09:36:53;23.10;99.90
15455;DHT22;21057;51.024;7.540;2022-08-01T09:39:22;23.30;99.90
15455;DHT22;21057;51.024;7.540;2022-08-01T09:41:50;23.40;99.90
15455;DHT22;21057;51.024;7.540;2022-08-01T09:44:17;23.40;99.90
15455;DHT22;21057;51.024;7.540;2022-08-01T09:46:50;23.50;99.90
15455;DHT22;21057;51.024;7.540;2022-08-01T09:49:28;23.50;99.90
15455;DHT22;21057;51.024;7.540;2022-08-01T09:51:57;23.60;99.90
15455;DHT22;21057;51.024;7.540;2022-08-01T09:54:32;23.40;99.90
15455;DHT22;21057;51.024;7.540;2022-08-01T09:57:11;23.40;99.90
15455;DHT22;21057;51.024;7.540;2022-08-01T09:59:39;23.20;99.90
15455;DHT22;21057;51.024;7.540;2022-08-01T10:02:08;23.60;99.90
15455;DHT22;21057;51.024;7.540;2022-08-01T10:04:45;23.80;99.90
15455;DHT22;21057;51.024;7.540;2022-08-01T10:07:13;23.90;99.90
15455;DHT22;21057;51.024;7.540;2022-08-01T10:09:42;24.20;99.90
15455;DHT22;21057;51.024;7.540;2022-08-01T10:12:09;24.50;99.90
15455;DHT22;21057;51.024;7.540;2022-08-01T10:14:38;24.90;99.90
15455;DHT22;21057;51.024;7.540;2022-08-01T10:17:07;25.10;99.90
15455;DHT22;21057;51.024;7.540;2022-08-01T10:19:35;25.20;99.90
15455;DHT22;21057;51.024;7.540;2022-08-01T10:22:07;25.20;99.90
15455;DHT22;21057;51.024;7.540;2022-08-01T10:24:37;25.30;99.90
15455;DHT22;21057;51.024;7.540;2022-08-01T10:27:07;25.60;99.90
15455;DHT22;21057;51.024;7.540;2022-08-01T10:29:47;25.60;99.50
15455;DHT22;21057;51.024;7.540;2022-08-01T10:32:16;26.20;99.60
15455;DHT22;21057;51.024;7.540;2022-08-01T10:34:44;26.40;99.20
15455;DHT22;21057;51.024;7.540;2022-08-01T10:37:13;26.20;99.00
15455;DHT22;21057;51.024;7.540;2022-08-01T10:39:41;26.40;98.30
15455;DHT22;21057;51.024;7.540;2022-08-01T10:42:10;26.20;97.30
15455;DHT22;21057;51.024;7.540;2022-08-01T10:44:38;26.50;97.50
15455;DHT22;21057;51.024;7.540;2022-08-01T10:47:09;26.10;95.70
15455;DHT22;21057;51.024;7.540;2022-08-01T10:49:43;26.10;95.80
15455;DHT22;21057;51.024;7.540;2022-08-01T10:52:15;25.70;96.40
15455;DHT22;21057;51.024;7.540;2022-08-01T10:54:43;26.00;97.60
15455;DHT22;21057;51.024;7.540;2022-08-01T10:57:10;26.70;97.00
15455;DHT22;21057;51.024;7.540;2022-08-01T10:59:48;27.00;94.40
15455;DHT22;21057;51.024;7.540;2022-08-01T11:02:27;27.60;95.50
15455;DHT22;21057;51.024;7.540;2022-08-01T11:04:57;28.10;94.40
15455;DHT22;21057;51.024;7.540;2022-08-01T11:07:39;28.30;91.10
15455;DHT22;21057;51.024;7.540;2022-08-01T11:10:19;28.40;92.60
15455;DHT22;21057;51.024;7.540;2022-08-01T11:12:48;27.70;88.90
15455;DHT22;21057;51.024;7.540;2022-08-01T11:15:24;28.00;92.00
15455;DHT22;21057;51.024;7.540;2022-08-01T11:17:53;28.10;91.20
15455;DHT22;21057;51.024;7.540;2022-08-01T11:20:21;27.30;91.20
15455;DHT22;21057;51.024;7.540;2022-08-01T11:26:11;26.40;92.20
15455;DHT22;21057;51.024;7.540;2022-08-01T11:28:39;26.40;93.40
15455;DHT22;21057;51.024;7.540;2022-08-01T11:31:26;26.10;92.50
15455;DHT22;21057;51.024;7.540;2022-08-01T11:33:54;25.90;93.10
15455;DHT22;21057;51.024;7.540;2022-08-01T11:36:21;25.60;93.80
15455;DHT22;21057;51.024;7.540;2022-08-01T11:39:07;26.00;94.50
15455;DHT22;21057;51.024;7.540;2022-08-01T11:41:39;26.40;95.90
15455;DHT22;21057;51.024;7.540;2022-08-01T11:44:07;27.20;93.20
15455;DHT22;21057;51.024;7.540;2022-08-01T11:46:58;27.70;91.90
15455;DHT22;21057;51.024;7.540;2022-08-01T11:49:43;28.40;92.70
15455;DHT22;21057;51.024;7.540;2022-08-01T11:52:13;28.40;90.20
15455;DHT22;21057;51.024;7.540;2022-08-01T11:54:43;28.10;92.10
15455;DHT22;21057;51.024;7.540;2022-08-01T11:57:14;27.80;91.90
15455;DHT22;21057;51.024;7.540;2022-08-01T11:59:44;27.20;93.50
15455;DHT22;21057;51.024;7.540;2022-08-01T12:02:18;26.80;94.70
15455;DHT22;21057;51.024;7.540;2022-08-01T12:04:47;26.70;94.50
15455;DHT22;21057;51.024;7.540;2022-08-01T12:07:16;27.20;94.40
15455;DHT22;21057;51.024;7.540;2022-08-01T12:09:43;27.20;95.50
15455;DHT22;21057;51.024;7.540;2022-08-01T12:12:11;27.80;93.30
15455;DHT22;21057;51.024;7.540;2022-08-01T12:14:42;27.90;92.50
15455;DHT22;21057;51.024;7.540;2022-08-01T12:17:09;28.40;91.30
15455;DHT22;21057;51.024;7.540;2022-08-01T12:19:36;28.20;90.80
15455;DHT22;21057;51.024;7.540;2022-08-01T12:22:06;27.20;91.70
15455;DHT22;21057;51.024;7.540;2022-08-01T12:24:33;26.90;92.10
15455;DHT22;21057;51.024;7.540;2022-08-01T12:27:01;27.30;93.10
15455;DHT22;21057;51.024;7.540;2022-08-01T12:29:36;27.50;92.00
15455;DHT22;21057;51.024;7.540;2022-08-01T12:32:04;27.60;93.10
15455;DHT22;21057;51.024;7.540;2022-08-01T12:34:46;27.80;92.60
15455;DHT22;21057;51.024;7.540;2022-08-01T12:37:13;27.50;92.00
15455;DHT22;21057;51.024;7.540;2022-08-01T12:39:40;26.80;92.10
15455;DHT22;21057;51.024;7.540;2022-08-01T12:42:08;26.40;93.10
15455;DHT22;21057;51.024;7.540;2022-08-01T12:44:38;26.70;94.40
15455;DHT22;21057;51.024;7.540;2022-08-01T12:47:06;26.50;91.30
15455;DHT22;21057;51.024;7.540;2022-08-01T12:49:35;25.90;92.30
15455;DHT22;21057;51.024;7.540;2022-08-01T12:52:03;25.80;93.40
15455;DHT22;21057;51.024;7.540;2022-08-01T12:54:31;26.30;93.30
15455;DHT22;21057;51.024;7.540;2022-08-01T12:57:27;26.40;93.30
15455;DHT22;21057;51.024;7.540;2022-08-01T13:00:05;26.80;92.70
15455;DHT22;21057;51.024;7.540;2022-08-01T13:02:32;27.40;90.90
15455;DHT22;21057;51.024;7.540;2022-08-01T13:04:59;28.00;91.10
15455;DHT22;21057;51.024;7.540;2022-08-01T13:07:35;28.50;88.20
15455;DHT22;21057;51.024;7.540;2022-08-01T13:10:02;28.40;85.70
15455;DHT22;21057;51.024;7.540;2022-08-01T13:12:30;27.50;87.40
15455;DHT22;21057;51.024;7.540;2022-08-01T13:14:59;27.40;89.00
15455;DHT22;21057;51.024;7.540;2022-08-01T13:17:30;27.20;90.60
15455;DHT22;21057;51.024;7.540;2022-08-01T13:19:58;27.10;89.80
15455;DHT22;21057;51.024;7.540;2022-08-01T13:22:31;26.80;90.20
15455;DHT22;21057;51.024;7.540;2022-08-01T13:25:10;26.30;90.50
15455;DHT22;21057;51.024;7.540;2022-08-01T13:27:37;26.10;92.50
15455;DHT22;21057;51.024;7.540;2022-08-01T13:30:13;26.60;91.30
15455;DHT22;21057;51.024;7.540;2022-08-01T13:32:40;27.10;92.00
15455;DHT22;21057;51.024;7.540;2022-08-01T13:35:10;27.30;90.10
15455;DHT22;21057;51.024;7.540;2022-08-01T13:37:38;26.70;88.40
15455;DHT22;21057;51.024;7.540;2022-08-01T13:40:06;26.40;89.90
15455;DHT22;21057;51.024;7.540;2022-08-01T13:42:34;25.70;90.50
15455;DHT22;21057;51.024;7.540;2022-08-01T13:45:02;25.60;91.10
15455;DHT22;21057;51.024;7.540;2022-08-01T13:47:30;26.00;91.60
15455;DHT22;21057;51.024;7.540;2022-08-01T13:49:58;26.00;90.90
15455;DHT22;21057;51.024;7.540;2022-08-01T13:52:26;25.90;91.30
15455;DHT22;21057;51.024;7.540;2022-08-01T13:54:53;26.20;91.30
15455;DHT22;21057;51.024;7.540;2022-08-01T13:57:20;26.50;91.70
15455;DHT22;21057;51.024;7.540;2022-08-01T13:59:47;27.40;92.10
15455;DHT22;21057;51.024;7.540;2022-08-01T14:02:14;27.90;90.90
15455;DHT22;21057;51.024;7.540;2022-08-01T14:04:42;27.30;85.70
15455;DHT22;21057;51.024;7.540;2022-08-01T14:07:09;27.30;85.60
15455;DHT22;21057;51.024;7.540;2022-08-01T14:09:37;27.50;85.60
15455;DHT22;21057;51.024;7.540;2022-08-01T14:12:04;27.30;87.40
15455;DHT22;21057;51.024;7.540;2022-08-01T14:14:32;27.30;87.70
15455;DHT22;21057;51.024;7.540;2022-08-01T14:16:59;27.60;86.80
15455;DHT22;21057;51.024;7.540;2022-08-01T14:19:26;27.70;83.10
15455;DHT22;21057;51.024;7.540;2022-08-01T14:21:54;27.50;82.60
15455;DHT22;21057;51.024;7.540;2022-08-01T14:24:22;27.30;82.00
15455;DHT22;21057;51.024;7.540;2022-08-01T14:26:50;27.30;84.70
15455;DHT22;21057;51.024;7.540;2022-08-01T14:29:17;27.50;85.70
15455;DHT22;21057;51.024;7.540;2022-08-01T14:31:44;27.40;82.70
15455;DHT22;21057;51.024;7.540;2022-08-01T14:34:11;28.00;85.00
15455;DHT22;21057;51.024;7.540;2022-08-01T14:36:38;28.20;86.70
15455;DHT22;21057;51.024;7.540;2022-08-01T14:39:07;28.50;86.80
15455;DHT22;21057;51.024;7.540;2022-08-01T14:41:34;27.60;85.90
15455;DHT22;21057;51.024;7.540;2022-08-01T14:44:01;27.50;89.10
15455;DHT22;21057;51.024;7.540;2022-08-01T14:46:29;27.50;88.10
15455;DHT22;21057;51.024;7.540;2022-08-01T14:48:56;27.70;89.30
15455;DHT22;21057;51.024;7.540;2022-08-01T14:51:23;27.50;89.00
15455;DHT22;21057;51.024;7.540;2022-08-01T14:53:50;27.50;90.80
15455;DHT22;21057;51.024;7.540;2022-08-01T14:56:20;27.70;88.70
15455;DHT22;21057;51.024;7.540;2022-08-01T14:58:47;27.70;86.10
15455;DHT22;21057;51.024;7.540;2022-08-01T15:01:14;27.10;87.60
15455;DHT22;21057;51.024;7.540;2022-08-01T15:03:41;27.00;87.80
15455;DHT22;21057;51.024;7.540;2022-08-01T15:06:08;27.60;89.30
15455;DHT22;21057;51.024;7.540;2022-08-01T15:08:36;27.50;86.50
15455;DHT22;21057;51.024;7.540;2022-08-01T15:11:03;27.70;90.20
15455;DHT22;21057;51.024;7.540;2022-08-01T15:13:32;27.70;87.30
15455;DHT22;21057;51.024;7.540;2022-08-01T15:15:59;27.40;88.60
15455;DHT22;21057;51.024;7.540;2022-08-01T15:18:26;26.40;90.10
15455;DHT22;21057;51.024;7.540;2022-08-01T15:20:54;26.10;90.90
15455;DHT22;21057;51.024;7.540;2022-08-01T15:23:21;26.00;91.40
15455;DHT22;21057;51.024;7.540;2022-08-01T15:25:49;26.40;91.10
15455;DHT22;21057;51.024;7.540;2022-08-01T15:28:16;26.80;90.30
15455;DHT22;21057;51.024;7.540;2022-08-01T15:30:44;27.10;91.50
15455;DHT22;21057;51.024;7.540;2022-08-01T15:33:11;27.00;88.40
15455;DHT22;21057;51.024;7.540;2022-08-01T15:35:38;27.10;90.50
15455;DHT22;21057;51.024;7.540;2022-08-01T15:38:05;26.90;89.80
15455;DHT22;21057;51.024;7.540;2022-08-01T15:40:32;27.20;89.30
15455;DHT22;21057;51.024;7.540;2022-08-01T15:43:00;27.30;89.10
15455;DHT22;21057;51.024;7.540;2022-08-01T15:45:27;27.20;89.20